createdAt,value
2019-02-22T00:00:17.745Z,88060.98
2019-02-22T00:02:44.485Z,88054.77
2019-02-22T00:05:11.214Z,88058.14
2019-02-22T00:07:37.995Z,88063.59
2019-02-22T00:10:05.516Z,88048.34
2019-02-22T00:12:32.276Z,88048.83
2019-02-22T00:14:59.024Z,88053.40
2019-02-22T00:17:25.784Z,88039.73
2019-02-22T00:19:52.540Z,88042.33
2019-02-22T00:22:19.340Z,88041.48
2019-02-22T00:24:46.094Z,88036.49
2019-02-22T00:27:12.837Z,88028.80
2019-02-22T00:29:39.634Z,88032.38
2019-02-22T00:32:06.394Z,88025.34
2019-02-22T00:34:33.269Z,88035.20
2019-02-22T00:36:59.982Z,88031.67
2019-02-22T00:39:26.802Z,88027.39
2019-02-22T00:41:53.580Z,88030.09
2019-02-22T00:44:20.322Z,88027.95
2019-02-22T00:46:47.117Z,88021.83
2019-02-22T00:49:13.911Z,88028.79
2019-02-22T00:51:40.727Z,88022.58
2019-02-22T00:54:07.496Z,88028.55
2019-02-22T00:56:34.306Z,88029.31
2019-02-22T00:59:01.043Z,88024.05
2019-02-22T01:01:27.804Z,88015.39
2019-02-22T01:03:54.626Z,88020.67
2019-02-22T01:06:21.369Z,88026.47
2019-02-22T01:08:48.114Z,88015.55
2019-02-22T01:11:14.904Z,88008.75
2019-02-22T01:13:41.644Z,88008.66
2019-02-22T01:16:08.480Z,87999.27
2019-02-22T01:18:35.240Z,87995.90
2019-02-22T01:21:01.975Z,87999.62
2019-02-22T01:23:28.757Z,87998.12
2019-02-22T01:25:55.501Z,87993.75
2019-02-22T01:28:22.258Z,87988.02
2019-02-22T01:30:49.087Z,87989.00
2019-02-22T01:33:15.831Z,87984.03
2019-02-22T01:35:42.634Z,87989.79
2019-02-22T01:38:09.402Z,87988.94
2019-02-22T01:40:43.782Z,87987.46
2019-02-22T01:43:04.758Z,87978.36
2019-02-22T01:45:31.514Z,87974.70
2019-02-22T01:47:58.323Z,87958.64
2019-02-22T01:50:25.168Z,87958.33
2019-02-22T01:52:51.932Z,87954.13
2019-02-22T01:55:18.720Z,87961.62
2019-02-22T01:57:45.455Z,87959.79
2019-02-22T02:00:12.579Z,87960.84
2019-02-22T02:02:39.354Z,87954.59
2019-02-22T02:05:06.322Z,87953.50
2019-02-22T02:07:33.093Z,87956.73
2019-02-22T02:09:59.835Z,87949.99
2019-02-22T02:12:26.628Z,87939.66
2019-02-22T02:14:53.373Z,87932.71
2019-02-22T02:17:20.161Z,87936.45
2019-02-22T02:19:46.861Z,87937.60
2019-02-22T02:22:13.569Z,87946.31
2019-02-22T02:24:40.369Z,87941.32
2019-02-22T02:27:07.101Z,87947.61
2019-02-22T02:29:33.823Z,87944.48
2019-02-22T02:32:00.627Z,87936.04
2019-02-22T02:34:27.410Z,87941.32
2019-02-22T02:36:54.143Z,87937.42
2019-02-22T02:39:20.852Z,87930.17
2019-02-22T02:41:47.583Z,87931.39
2019-02-22T02:44:14.367Z,87927.80
2019-02-22T02:46:41.188Z,87929.64
2019-02-22T02:49:08.000Z,87921.30
2019-02-22T02:51:34.765Z,87912.28
2019-02-22T02:54:01.535Z,87909.67
2019-02-22T02:56:28.408Z,87902.73
2019-02-22T02:58:55.043Z,87899.75
2019-02-22T03:01:21.802Z,87902.03
2019-02-22T03:03:48.561Z,87896.83
2019-02-22T03:06:15.276Z,87892.32
2019-02-22T03:08:42.053Z,87892.41
2019-02-22T03:11:20.082Z,87885.02
2019-02-22T03:13:37.420Z,87887.55
2019-02-22T03:16:04.215Z,87892.32
2019-02-22T03:18:30.934Z,87880.59
2019-02-22T03:20:57.816Z,87881.14
2019-02-22T03:23:24.533Z,87882.86
2019-02-22T03:25:51.287Z,87884.35
2019-02-22T03:28:18.074Z,87882.02
2019-02-22T03:30:44.811Z,87884.58
2019-02-22T03:33:11.581Z,87890.25
2019-02-22T03:35:38.337Z,87891.31
2019-02-22T03:38:05.928Z,87897.21
2019-02-22T03:40:33.356Z,87885.36
2019-02-22T03:43:00.049Z,87883.31
2019-02-22T03:45:28.584Z,87873.63
2019-02-22T03:47:55.384Z,87870.92
2019-02-22T03:50:22.133Z,87877.34
2019-02-22T03:52:48.865Z,87881.27
2019-02-22T03:55:15.625Z,87881.05
2019-02-22T03:57:42.358Z,87866.80
2019-02-22T04:00:10.175Z,87873.44
2019-02-22T04:02:36.900Z,87859.06
2019-02-22T04:05:06.008Z,87867.80
2019-02-22T04:07:32.827Z,87881.83
2019-02-22T04:09:59.562Z,87889.67
2019-02-22T04:12:26.263Z,87881.50
2019-02-22T04:14:53.038Z,87875.17
2019-02-22T04:17:19.803Z,87893.05
2019-02-22T04:19:46.526Z,87883.34
2019-02-22T04:22:13.308Z,87879.09
2019-02-22T04:24:40.023Z,87871.92
2019-02-22T04:27:06.800Z,87875.83
2019-02-22T04:29:33.555Z,87866.90
2019-02-22T04:32:00.296Z,87876.82
2019-02-22T04:34:27.157Z,87875.82
2019-02-22T04:36:53.889Z,87876.16
2019-02-22T04:39:20.650Z,87876.81
2019-02-22T04:41:57.720Z,87866.12
2019-02-22T04:44:15.954Z,87870.80
2019-02-22T04:46:42.738Z,87865.92
2019-02-22T04:49:09.493Z,87869.93
2019-02-22T04:51:36.305Z,87872.31
2019-02-22T04:54:03.013Z,87876.47
2019-02-22T04:56:29.766Z,87873.10
2019-02-22T04:58:56.504Z,87866.78
2019-02-22T05:01:23.227Z,87864.17
2019-02-22T05:03:50.013Z,87866.66
2019-02-22T05:06:16.712Z,87872.44
2019-02-22T05:08:43.507Z,87861.67
2019-02-22T05:11:10.257Z,87863.97
2019-02-22T05:13:37.022Z,87869.63
2019-02-22T05:16:03.779Z,87865.61
2019-02-22T05:18:30.577Z,87868.00
2019-02-22T05:20:57.304Z,87869.41
2019-02-22T05:23:24.058Z,87864.06
2019-02-22T05:25:50.798Z,87853.09
2019-02-22T05:28:17.544Z,87858.74
2019-02-22T05:30:44.349Z,87855.80
2019-02-22T05:33:11.111Z,87861.26
2019-02-22T05:35:37.859Z,87857.75
2019-02-22T05:38:04.596Z,87861.03
2019-02-22T05:40:31.376Z,87861.02
2019-02-22T05:42:58.114Z,87870.81
2019-02-22T05:45:27.038Z,87868.64
2019-02-22T05:47:53.811Z,87865.80
2019-02-22T05:50:20.535Z,87865.70
2019-02-22T05:52:47.317Z,87858.84
2019-02-22T05:55:14.036Z,87858.84
2019-02-22T05:57:40.786Z,87860.58
2019-02-22T06:00:07.620Z,87860.99
2019-02-22T06:02:34.357Z,87865.14
2019-02-22T06:05:01.079Z,87868.92
2019-02-22T06:07:27.868Z,87869.27
2019-02-22T06:09:54.578Z,87868.19
2019-02-22T06:12:21.336Z,87863.61
2019-02-22T06:14:48.112Z,87866.98
2019-02-22T06:17:15.103Z,87870.12
2019-02-22T06:19:41.895Z,87870.44
2019-02-22T06:22:08.620Z,87869.23
2019-02-22T06:24:35.429Z,87864.88
2019-02-22T06:27:02.147Z,87865.84
2019-02-22T06:29:28.882Z,87872.70
2019-02-22T06:31:55.651Z,87879.42
2019-02-22T06:34:22.441Z,87871.02
2019-02-22T06:37:00.839Z,87859.95
2019-02-22T06:39:17.771Z,87858.73
2019-02-22T06:41:44.493Z,87873.28
2019-02-22T06:44:11.970Z,87875.59
2019-02-22T06:46:38.831Z,87878.41
2019-02-22T06:49:05.585Z,87877.11
2019-02-22T06:51:32.844Z,87890.30
2019-02-22T06:53:59.593Z,87892.38
2019-02-22T06:56:26.496Z,87909.59
2019-02-22T06:58:53.222Z,87911.09
2019-02-22T07:01:19.983Z,87913.21
2019-02-22T07:03:47.056Z,87913.98
2019-02-22T07:06:13.868Z,87900.62
2019-02-22T07:08:40.622Z,87910.23
2019-02-22T07:11:07.371Z,87900.55
2019-02-22T07:13:34.142Z,87899.91
2019-02-22T07:16:00.854Z,87903.48
2019-02-22T07:18:27.627Z,87914.83
2019-02-22T07:20:54.338Z,87910.91
2019-02-22T07:23:21.104Z,87915.91
2019-02-22T07:25:48.062Z,87913.52
2019-02-22T07:28:14.931Z,87922.78
2019-02-22T07:30:41.684Z,87921.03
2019-02-22T07:33:08.570Z,87918.75
2019-02-22T07:35:35.365Z,87925.92
2019-02-22T07:38:03.905Z,87936.06
2019-02-22T07:40:30.660Z,87941.18
2019-02-22T07:43:07.557Z,87937.05
2019-02-22T07:45:26.004Z,87941.42
2019-02-22T07:47:52.771Z,87942.39
2019-02-22T07:50:19.540Z,87927.44
2019-02-22T07:52:46.302Z,87920.86
2019-02-22T07:55:13.061Z,87933.61
2019-02-22T07:57:40.269Z,87939.79
2019-02-22T08:00:12.244Z,87935.48
2019-02-22T08:02:38.959Z,87934.91
2019-02-22T08:05:05.739Z,87937.72
2019-02-22T08:07:32.512Z,87943.16
2019-02-22T08:09:59.260Z,87951.95
2019-02-22T08:12:25.988Z,87947.44
2019-02-22T08:14:52.797Z,87952.22
2019-02-22T08:17:19.528Z,87952.83
2019-02-22T08:19:46.270Z,87962.30
2019-02-22T08:22:13.044Z,87964.15
2019-02-22T08:24:39.793Z,87973.32
2019-02-22T08:27:06.570Z,87965.52
2019-02-22T08:29:33.289Z,87975.91
2019-02-22T08:32:00.039Z,87977.91
2019-02-22T08:34:29.952Z,87971.49
2019-02-22T08:36:56.710Z,87975.97
2019-02-22T08:39:23.712Z,87988.58
2019-02-22T08:41:50.499Z,87990.93
2019-02-22T08:44:17.216Z,87993.12
2019-02-22T08:46:43.938Z,87991.46
2019-02-22T08:49:10.681Z,87984.13
2019-02-22T08:51:37.408Z,87983.35
2019-02-22T08:54:04.200Z,87988.48
2019-02-22T08:56:30.909Z,88000.52
2019-02-22T08:58:57.701Z,88010.52
2019-02-22T09:01:24.434Z,88007.31
2019-02-22T09:03:52.111Z,88010.66
2019-02-22T09:06:18.877Z,88005.66
2019-02-22T09:08:45.591Z,88000.99
2019-02-22T09:11:12.307Z,88010.16
2019-02-22T09:13:43.523Z,88018.10
2019-02-22T09:16:07.635Z,88013.14
2019-02-22T09:18:34.425Z,88022.97
2019-02-22T09:21:01.172Z,88018.38
2019-02-22T09:23:27.944Z,88024.39
2019-02-22T09:25:54.700Z,88021.19
2019-02-22T09:28:21.440Z,88024.55
2019-02-22T09:30:48.146Z,88026.58
2019-02-22T09:33:14.958Z,88023.11
2019-02-22T09:35:41.709Z,88020.95
2019-02-22T09:38:08.452Z,88020.02
2019-02-22T09:40:35.244Z,88013.59
2019-02-22T09:43:01.942Z,88012.63
2019-02-22T09:45:28.761Z,88005.72
2019-02-22T09:47:55.473Z,87992.59
2019-02-22T09:50:22.219Z,88004.34
2019-02-22T09:52:49.000Z,87991.43
2019-02-22T09:55:15.743Z,88003.87
2019-02-22T09:57:42.497Z,87995.96
2019-02-22T10:00:13.771Z,87993.78
2019-02-22T10:02:40.674Z,87986.23
2019-02-22T10:05:12.284Z,87989.58
2019-02-22T10:07:39.015Z,87990.45
2019-02-22T10:10:10.557Z,87993.37
2019-02-22T10:12:37.378Z,88004.90
2019-02-22T10:15:06.724Z,88004.83
2019-02-22T10:17:33.390Z,88010.42
2019-02-22T10:20:01.598Z,88012.28
2019-02-22T10:22:28.789Z,88014.01
2019-02-22T10:24:55.553Z,88013.88
2019-02-22T10:27:22.387Z,88022.13
2019-02-22T10:29:49.122Z,88018.77
2019-02-22T10:32:16.112Z,88010.95
2019-02-22T10:34:42.838Z,88014.25
2019-02-22T10:37:09.662Z,88009.52
2019-02-22T10:39:36.406Z,88012.15
2019-02-22T10:42:03.126Z,88013.40
2019-02-22T10:44:29.952Z,88017.05
2019-02-22T10:46:56.741Z,88011.66
2019-02-22T10:49:23.509Z,88011.63
2019-02-22T10:51:50.227Z,88023.70
2019-02-22T10:54:16.970Z,88016.27
2019-02-22T10:56:43.729Z,88015.50
2019-02-22T10:59:10.616Z,88019.45
2019-02-22T11:01:37.325Z,88012.96
2019-02-22T11:04:04.076Z,88015.93
2019-02-22T11:06:30.946Z,88022.92
2019-02-22T11:08:57.701Z,88027.08
2019-02-22T11:11:24.415Z,88008.19
2019-02-22T11:13:51.207Z,88007.51
2019-02-22T11:16:17.909Z,88007.42
2019-02-22T11:18:44.644Z,88010.55
2019-02-22T11:21:11.417Z,88025.56
2019-02-22T11:23:38.177Z,88019.81
2019-02-22T11:26:04.962Z,88018.77
2019-02-22T11:28:31.682Z,88024.44
2019-02-22T11:30:58.389Z,88025.43
2019-02-22T11:33:25.199Z,88021.27
2019-02-22T11:35:51.906Z,88025.75
2019-02-22T11:38:18.656Z,88025.52
2019-02-22T11:40:45.454Z,88019.37
2019-02-22T11:43:12.244Z,88018.51
2019-02-22T11:45:38.918Z,88022.55
2019-02-22T11:48:09.147Z,88027.28
2019-02-22T11:50:34.297Z,88029.88
2019-02-22T11:53:01.022Z,88034.75
2019-02-22T11:55:27.749Z,88033.33
2019-02-22T11:57:54.486Z,88037.22
2019-02-22T12:00:21.602Z,88048.99
2019-02-22T12:02:48.341Z,88035.93
2019-02-22T12:05:15.212Z,88042.47
2019-02-22T12:07:41.984Z,88036.48
2019-02-22T12:10:08.785Z,88038.84
2019-02-22T12:12:35.543Z,88046.63
2019-02-22T12:15:03.445Z,88043.86
2019-02-22T12:17:30.179Z,88040.41
2019-02-22T12:19:56.907Z,88050.19
2019-02-22T12:22:23.697Z,88034.98
2019-02-22T12:24:50.387Z,88045.30
2019-02-22T12:27:17.167Z,88039.17
2019-02-22T12:29:43.912Z,88032.06
2019-02-22T12:32:10.678Z,88037.82
2019-02-22T12:34:37.472Z,88036.97
2019-02-22T12:37:04.188Z,88041.94
2019-02-22T12:39:30.991Z,88035.26
2019-02-22T12:41:57.718Z,88038.20
2019-02-22T12:44:24.472Z,88039.84
2019-02-22T12:46:51.241Z,88044.80
2019-02-22T12:49:17.985Z,88048.94
2019-02-22T12:51:44.740Z,88052.47
2019-02-22T12:54:11.518Z,88052.70
2019-02-22T12:56:57.055Z,88058.37
2019-02-22T12:59:06.880Z,88055.41
2019-02-22T13:01:33.603Z,88057.98
2019-02-22T13:04:00.344Z,88052.83
2019-02-22T13:06:27.102Z,88060.73
2019-02-22T13:08:53.868Z,88065.89
2019-02-22T13:11:20.583Z,88060.72
2019-02-22T13:13:47.399Z,88062.41
2019-02-22T13:16:14.163Z,88065.47
2019-02-22T13:18:40.915Z,88067.63
2019-02-22T13:21:07.720Z,88063.27
2019-02-22T13:23:34.447Z,88057.53
2019-02-22T13:26:01.202Z,88057.16
2019-02-22T13:28:27.978Z,88059.20
2019-02-22T13:30:54.718Z,88048.59
2019-02-22T13:33:21.516Z,88051.08
2019-02-22T13:35:48.269Z,88060.62
2019-02-22T13:38:14.993Z,88056.60
2019-02-22T13:40:41.832Z,88056.44
2019-02-22T13:43:08.602Z,88060.39
2019-02-22T13:45:35.351Z,88061.17
2019-02-22T13:48:02.120Z,88062.59
2019-02-22T13:50:28.992Z,88068.25
2019-02-22T13:52:55.781Z,88069.84
2019-02-22T13:55:22.499Z,88069.70
2019-02-22T13:57:49.233Z,88069.14
2019-02-22T14:00:17.512Z,88076.53
2019-02-22T14:02:44.261Z,88079.60
2019-02-22T14:05:11.060Z,88079.60
2019-02-22T14:07:37.782Z,88072.63
2019-02-22T14:10:04.885Z,88075.69
2019-02-22T14:12:38.320Z,88075.03
2019-02-22T14:15:06.678Z,88086.78
2019-02-22T14:17:33.428Z,88093.45
2019-02-22T14:20:00.336Z,88084.06
2019-02-22T14:22:27.063Z,88090.03
2019-02-22T14:24:53.815Z,88083.40
2019-02-22T14:27:20.637Z,88085.14
2019-02-22T14:29:47.326Z,88086.09
2019-02-22T14:32:14.057Z,88085.91
2019-02-22T14:34:40.917Z,88082.53
2019-02-22T14:37:07.616Z,88090.70
2019-02-22T14:39:34.338Z,88095.06
2019-02-22T14:42:01.146Z,88092.80
2019-02-22T14:44:27.876Z,88090.36
2019-02-22T14:46:54.977Z,88090.55
2019-02-22T14:49:21.824Z,88093.56
2019-02-22T14:51:48.550Z,88100.58
2019-02-22T14:54:15.265Z,88103.37
2019-02-22T14:56:42.060Z,88100.94
2019-02-22T14:59:08.774Z,88097.52
2019-02-22T15:01:35.739Z,88097.28
2019-02-22T15:04:02.588Z,88099.44
2019-02-22T15:06:29.334Z,88104.25
2019-02-22T15:08:56.111Z,88101.20
2019-02-22T15:11:22.823Z,88098.47
2019-02-22T15:13:49.613Z,88099.25
2019-02-22T15:16:16.343Z,88100.02
2019-02-22T15:18:43.059Z,88109.38
2019-02-22T15:21:09.839Z,88108.28
2019-02-22T15:23:38.707Z,88104.73
2019-02-22T15:26:05.087Z,88110.50
2019-02-22T15:28:31.875Z,88107.01
2019-02-22T15:30:58.585Z,88121.43
2019-02-22T15:33:25.415Z,88113.95
2019-02-22T15:35:52.147Z,88120.28
2019-02-22T15:38:18.887Z,88119.52
2019-02-22T15:40:46.248Z,88121.47
2019-02-22T15:43:13.046Z,88126.18
2019-02-22T15:45:39.795Z,88128.94
2019-02-22T15:48:06.615Z,88133.10
2019-02-22T15:50:33.270Z,88133.50
2019-02-22T15:53:00.062Z,88139.33
2019-02-22T15:55:26.814Z,88142.97
2019-02-22T15:57:53.594Z,88152.69
2019-02-22T16:00:32.485Z,88150.80
2019-02-22T16:02:59.264Z,88146.63
2019-02-22T16:05:25.981Z,88149.56
2019-02-22T16:07:52.734Z,88158.38
2019-02-22T16:10:19.531Z,88153.34
2019-02-22T16:12:46.247Z,88163.75
2019-02-22T16:15:15.091Z,88157.41
2019-02-22T16:17:41.797Z,88154.48
2019-02-22T16:20:08.564Z,88162.20
2019-02-22T16:22:35.316Z,88165.20
2019-02-22T16:25:02.113Z,88160.78
2019-02-22T16:27:28.882Z,88149.95
2019-02-22T16:29:55.675Z,88149.45
2019-02-22T16:32:22.394Z,88156.60
2019-02-22T16:34:49.198Z,88155.28
2019-02-22T16:37:15.891Z,88165.09
2019-02-22T16:39:42.676Z,88168.05
2019-02-22T16:42:09.411Z,88170.01
2019-02-22T16:44:36.249Z,88173.10
2019-02-22T16:47:02.956Z,88175.09
2019-02-22T16:49:29.723Z,88183.25
2019-02-22T16:51:56.494Z,88192.92
2019-02-22T16:54:23.239Z,88194.04
2019-02-22T16:56:50.005Z,88193.33
2019-02-22T16:59:16.718Z,88203.95
2019-02-22T17:01:43.504Z,88204.44
2019-02-22T17:04:10.237Z,88211.86
2019-02-22T17:06:37.011Z,88209.26
2019-02-22T17:09:04.750Z,88206.64
2019-02-22T17:11:31.504Z,88210.56
2019-02-22T17:13:58.250Z,88219.19
2019-02-22T17:16:25.000Z,88217.02
2019-02-22T17:18:51.734Z,88219.84
2019-02-22T17:21:18.507Z,88231.83
2019-02-22T17:23:45.225Z,88228.55
2019-02-22T17:26:13.613Z,88230.63
2019-02-22T17:28:40.334Z,88233.01
2019-02-22T17:31:07.108Z,88238.55
2019-02-22T17:33:33.810Z,88241.35
2019-02-22T17:36:00.641Z,88244.36
2019-02-22T17:38:27.367Z,88247.06
2019-02-22T17:40:54.109Z,88254.11
2019-02-22T17:43:20.888Z,88258.46
2019-02-22T17:45:47.689Z,88260.30
2019-02-22T17:48:14.480Z,88267.38
2019-02-22T17:50:41.216Z,88275.27
2019-02-22T17:53:08.002Z,88271.72
2019-02-22T17:55:34.744Z,88274.12
2019-02-22T17:58:01.524Z,88272.77
2019-02-22T18:00:28.267Z,88279.02
2019-02-22T18:02:55.052Z,88271.59
2019-02-22T18:05:21.997Z,88277.50
2019-02-22T18:07:48.772Z,88276.05
2019-02-22T18:10:15.492Z,88274.80
2019-02-22T18:12:42.280Z,88274.44
2019-02-22T18:15:15.217Z,88281.92
2019-02-22T18:17:44.433Z,88276.55
2019-02-22T18:20:11.145Z,88275.30
2019-02-22T18:22:37.931Z,88269.98
2019-02-22T18:25:07.478Z,88272.39
2019-02-22T18:27:34.236Z,88278.80
2019-02-22T18:30:01.044Z,88276.52
2019-02-22T18:32:27.779Z,88275.39
2019-02-22T18:34:54.569Z,88282.91
2019-02-22T18:37:21.301Z,88282.95
2019-02-22T18:39:48.088Z,88285.29
2019-02-22T18:42:14.834Z,88289.16
2019-02-22T18:44:41.617Z,88285.50
2019-02-22T18:47:18.820Z,88283.98
2019-02-22T18:49:37.002Z,88284.80
2019-02-22T18:52:03.738Z,88290.09
2019-02-22T18:54:30.514Z,88285.41
2019-02-22T18:56:57.309Z,88288.58
2019-02-22T18:59:24.098Z,88293.11
2019-02-22T19:01:50.834Z,88289.67
2019-02-22T19:04:17.703Z,88292.28
2019-02-22T19:06:44.568Z,88285.55
2019-02-22T19:09:11.384Z,88294.44
2019-02-22T19:11:38.172Z,88290.07
2019-02-22T19:14:04.940Z,88284.78
2019-02-22T19:16:31.718Z,88288.69
2019-02-22T19:18:58.470Z,88282.94
2019-02-22T19:21:25.281Z,88291.52
2019-02-22T19:23:52.023Z,88293.75
2019-02-22T19:26:18.851Z,88296.11
2019-02-22T19:28:45.588Z,88297.82
2019-02-22T19:31:12.401Z,88293.93
2019-02-22T19:33:39.144Z,88290.49
2019-02-22T19:36:05.927Z,88293.18
2019-02-22T19:38:32.675Z,88292.48
2019-02-22T19:40:59.479Z,88285.98
2019-02-22T19:43:26.264Z,88293.56
2019-02-22T19:45:53.066Z,88293.87
2019-02-22T19:48:19.922Z,88293.89
2019-02-22T19:50:46.956Z,88291.52
2019-02-22T19:53:13.741Z,88297.48
2019-02-22T19:55:40.510Z,88298.11
2019-02-22T19:58:07.296Z,88303.25
2019-02-22T20:00:34.165Z,88303.08
2019-02-22T20:03:01.015Z,88295.52
2019-02-22T20:05:28.045Z,88296.11
2019-02-22T20:07:54.991Z,88299.33
2019-02-22T20:10:22.764Z,88301.86
2019-02-22T20:12:49.516Z,88307.07
2019-02-22T20:15:16.651Z,88303.69
2019-02-22T20:17:53.245Z,88303.83
2019-02-22T20:20:16.954Z,88313.58
2019-02-22T20:22:43.735Z,88308.37
2019-02-22T20:25:10.580Z,88314.88
2019-02-22T20:27:37.502Z,88313.02
2019-02-22T20:30:09.259Z,88320.09
2019-02-22T20:32:36.060Z,88328.05
2019-02-22T20:35:06.805Z,88326.89
2019-02-22T20:37:33.612Z,88331.50
2019-02-22T20:40:00.369Z,88326.73
2019-02-22T20:42:27.107Z,88331.95
2019-02-22T20:44:53.976Z,88334.63
2019-02-22T20:47:20.773Z,88334.63
2019-02-22T20:49:47.539Z,88330.41
2019-02-22T20:52:14.292Z,88344.67
2019-02-22T20:54:41.188Z,88348.95
2019-02-22T20:57:08.186Z,88352.09
2019-02-22T20:59:34.908Z,88356.52
2019-02-22T21:02:01.839Z,88354.69
2019-02-22T21:04:28.575Z,88361.44
2019-02-22T21:06:55.379Z,88367.38
2019-02-22T21:09:22.110Z,88365.08
2019-02-22T21:11:48.827Z,88362.48
2019-02-22T21:14:15.587Z,88360.66
2019-02-22T21:16:43.514Z,88365.01
2019-02-22T21:19:10.278Z,88365.91
2019-02-22T21:21:37.019Z,88370.06
2019-02-22T21:24:03.840Z,88364.61
2019-02-22T21:26:30.586Z,88365.76
2019-02-22T21:28:57.330Z,88367.06
2019-02-22T21:31:24.098Z,88366.72
2019-02-22T21:33:50.825Z,88363.19
2019-02-22T21:36:17.606Z,88366.84
2019-02-22T21:38:44.348Z,88364.09
2019-02-22T21:41:11.119Z,88365.33
2019-02-22T21:43:37.839Z,88361.58
2019-02-22T21:46:04.638Z,88363.78
2019-02-22T21:48:31.426Z,88362.97
2019-02-22T21:50:58.178Z,88363.45
2019-02-22T21:53:25.286Z,88358.37
2019-02-22T21:55:52.102Z,88364.98
2019-02-22T21:58:18.887Z,88363.34
2019-02-22T22:00:45.629Z,88368.65
2019-02-22T22:03:12.406Z,88358.55
2019-02-22T22:05:39.138Z,88364.22
2019-02-22T22:08:05.888Z,88373.27
2019-02-22T22:10:32.675Z,88374.62
2019-02-22T22:12:59.396Z,88368.06
2019-02-22T22:15:26.213Z,88371.03
2019-02-22T22:17:52.954Z,88378.53
2019-02-22T22:20:19.682Z,88381.95
2019-02-22T22:22:46.459Z,88373.85
2019-02-22T22:25:14.604Z,88374.69
2019-02-22T22:27:41.390Z,88375.92
2019-02-22T22:30:15.590Z,88375.73
2019-02-22T22:32:42.398Z,88374.98
2019-02-22T22:35:12.642Z,88370.78
2019-02-22T22:37:39.382Z,88372.61
2019-02-22T22:40:09.065Z,88367.94
2019-02-22T22:42:35.800Z,88365.34
2019-02-22T22:45:05.925Z,88373.38
2019-02-22T22:47:32.460Z,88375.45
2019-02-22T22:49:59.254Z,88370.53
2019-02-22T22:52:25.991Z,88373.33
2019-02-22T22:54:52.737Z,88364.03
2019-02-22T22:57:19.514Z,88367.19
2019-02-22T22:59:46.264Z,88353.95
2019-02-22T23:02:12.975Z,88359.50
2019-02-22T23:04:39.754Z,88357.42
2019-02-22T23:07:06.882Z,88362.16
2019-02-22T23:09:33.697Z,88358.48
2019-02-22T23:12:00.409Z,88363.20
2019-02-22T23:14:27.148Z,88364.03
2019-02-22T23:16:54.049Z,88370.00
2019-02-22T23:19:20.779Z,88369.48
2019-02-22T23:21:47.573Z,88367.40
2019-02-22T23:24:14.423Z,88371.23
2019-02-22T23:26:41.206Z,88372.94
2019-02-22T23:29:07.946Z,88367.32
2019-02-22T23:31:34.681Z,88373.91
2019-02-22T23:34:01.479Z,88375.52
2019-02-22T23:36:28.212Z,88385.08
2019-02-22T23:38:55.004Z,88392.73
2019-02-22T23:41:21.736Z,88388.97
2019-02-22T23:43:48.483Z,88386.42
2019-02-22T23:46:15.282Z,88382.48
2019-02-22T23:48:42.075Z,88391.13
2019-02-22T23:51:08.853Z,88396.42
2019-02-22T23:53:35.607Z,88392.67
2019-02-22T23:56:02.383Z,88389.69
2019-02-22T23:58:29.126Z,88388.91
